Time;durP1;ratioP1;P1;durP2;ratioP2;P2;SDS_P1;SDS_P2;PMS_P1;PMS_P2;Temp;Humidity;BMP_temperature;BMP_pressure;BME280_temperature;BME280_humidity;BME280_pressure;Samples;Min_cycle;Max_cycle;Signal;HPM_P1;HPM_P2
2022/12/22 03:26:46;;;;;;;;;;;21.30;65.00;;;;;;6327142;28;19920;-58
2022/12/22 03:29:48;;;;;;;;;;;21.80;65.40;;;;;;6327374;28;19920;-59
2022/12/22 03:32:49;;;;;;;;;;;21.20;65.10;;;;;;6328157;28;19920;-59
2022/12/22 03:35:51;;;;;;;;;;;21.30;64.40;;;;;;6327352;28;20434;-59
2022/12/22 03:38:52;;;;;;;;;;;21.50;65.00;;;;;;6327696;28;19920;-59
2022/12/22 03:48:24;;;;;;;;;;;21.10;64.70;;;;;;6326745;28;19920;-59
2022/12/22 03:51:25;;;;;;;;;;;21.30;65.00;;;;;;6327770;28;20006;-59
2022/12/22 03:54:27;;;;;;;;;;;21.30;65.00;;;;;;6328017;28;19955;-59
2022/12/22 03:57:28;;;;;;;;;;;21.00;64.80;;;;;;6327151;28;20375;-59
2022/12/22 04:00:29;;;;;;;;;;;21.90;65.40;;;;;;6327504;28;19920;-59
2022/12/22 04:03:31;;;;;;;;;;;21.20;65.00;;;;;;6327478;28;19977;-59
2022/12/22 04:06:33;;;;;;;;;;;21.30;65.00;;;;;;6327140;28;19920;-59
2022/12/22 04:09:34;;;;;;;;;;;21.00;64.80;;;;;;6325989;28;19920;-59
2022/12/22 04:15:51;;;;;;;;;;;21.50;65.00;;;;;;6324617;28;19924;-59
2022/12/22 04:18:53;;;;;;;;;;;20.90;65.50;;;;;;6325875;28;19962;-59
2022/12/22 04:21:54;;;;;;;;;;;21.50;65.10;;;;;;6325576;28;20460;-59
2022/12/22 04:24:56;;;;;;;;;;;20.90;64.70;;;;;;6307422;28;19919;-60
2022/12/22 04:27:57;;;;;;;;;;;21.40;65.10;;;;;;6325231;28;20383;-60
2022/12/22 04:30:58;;;;;;;;;;;21.80;65.30;;;;;;6324799;28;19962;-59
2022/12/22 04:34:00;;;;;;;;;;;21.20;64.30;;;;;;6325209;28;19927;-60
2022/12/22 04:37:02;;;;;;;;;;;21.00;64.70;;;;;;6325270;28;20299;-59
2022/12/22 04:40:17;;;;;;;;;;;21.60;65.10;;;;;;6325051;28;19924;-59
2022/12/22 04:43:18;;;;;;;;;;;21.00;64.80;;;;;;6325385;28;20261;-59
2022/12/22 04:46:20;;;;;;;;;;;21.50;65.10;;;;;;6324432;28;19920;-59
2022/12/22 04:49:22;;;;;;;;;;;21.00;64.80;;;;;;6324901;28;19920;-59
2022/12/22 04:52:23;;;;;;;;;;;21.20;65.10;;;;;;6325186;28;19927;-59
2022/12/22 04:55:24;;;;;;;;;;;21.10;64.90;;;;;;6324365;28;19920;-59
2022/12/22 04:58:26;;;;;;;;;;;21.40;64.90;;;;;;6324696;28;19920;-59
2022/12/22 05:01:27;;;;;;;;;;;21.90;65.20;;;;;;6324668;28;19966;-59
2022/12/22 05:04:29;;;;;;;;;;;21.50;65.10;;;;;;6324278;28;20291;-59
2022/12/22 05:07:30;;;;;;;;;;;21.10;64.80;;;;;;6324490;28;19949;-59
2022/12/22 05:10:32;;;;;;;;;;;21.30;65.00;;;;;;6323894;28;20376;-59
2022/12/22 05:13:33;;;;;;;;;;;21.10;64.80;;;;;;6325608;28;19920;-59
2022/12/22 05:16:35;;;;;;;;;;;21.20;64.70;;;;;;6306943;28;19930;-59
2022/12/22 05:19:37;;;;;;;;;;;21.00;64.90;;;;;;6324910;28;20292;-59
2022/12/22 05:22:38;;;;;;;;;;;21.20;64.90;;;;;;6324837;28;20260;-59
2022/12/22 05:25:40;;;;;;;;;;;21.50;64.90;;;;;;6324632;28;19920;-59
2022/12/22 05:28:42;;;;;;;;;;;21.40;65.00;;;;;;6325483;28;19920;-59
2022/12/22 05:31:43;;;;;;;;;;;21.00;64.60;;;;;;6306976;28;19920;-59
2022/12/22 05:34:49;;;;;;;;;;;21.20;64.20;;;;;;6325088;28;19969;-59
2022/12/22 05:37:50;;;;;;;;;;;20.90;64.70;;;;;;6325810;28;19985;-59
2022/12/22 05:40:51;;;;;;;;;;;21.00;64.80;;;;;;6324377;28;19920;-59
2022/12/22 05:43:53;;;;;;;;;;;21.40;65.00;;;;;;6324819;28;19927;-59
2022/12/22 05:46:54;;;;;;;;;;;21.20;64.90;;;;;;6323709;28;19920;-59
2022/12/22 05:49:56;;;;;;;;;;;21.30;65.10;;;;;;6324217;28;19924;-59
2022/12/22 05:52:57;;;;;;;;;;;21.30;64.90;;;;;;6324620;28;19943;-59
2022/12/22 05:55:59;;;;;;;;;;;21.40;64.80;;;;;;6324292;28;19955;-59
2022/12/22 05:59:00;;;;;;;;;;;21.40;65.00;;;;;;6324278;28;20371;-59
2022/12/22 06:02:01;;;;;;;;;;;20.80;64.70;;;;;;6324464;28;19927;-59
2022/12/22 06:05:04;;;;;;;;;;;21.00;64.90;;;;;;6324730;28;19919;-59
2022/12/22 06:08:05;;;;;;;;;;;21.50;64.70;;;;;;6323994;28;19924;-59
2022/12/22 06:11:06;;;;;;;;;;;21.10;64.50;;;;;;6323944;28;20429;-59
2022/12/22 06:14:08;;;;;;;;;;;21.00;64.80;;;;;;6323667;28;20367;-59
2022/12/22 06:17:09;;;;;;;;;;;21.00;64.80;;;;;;6322585;28;19920;-60
2022/12/22 06:20:11;;;;;;;;;;;22.00;65.20;;;;;;6323401;28;19920;-60
2022/12/22 06:23:13;;;;;;;;;;;20.70;64.40;;;;;;6322852;28;19920;-60
2022/12/22 06:26:14;;;;;;;;;;;21.40;65.00;;;;;;6322640;28;19931;-59
2022/12/22 06:29:16;;;;;;;;;;;21.50;64.90;;;;;;6323071;28;19920;-60
2022/12/22 06:32:17;;;;;;;;;;;20.90;64.80;;;;;;6322557;28;19920;-59
2022/12/22 06:35:19;;;;;;;;;;;21.10;64.00;;;;;;6322487;28;19977;-59
2022/12/22 06:38:20;;;;;;;;;;;21.50;64.90;;;;;;6322812;28;19927;-59
2022/12/22 06:44:37;;;;;;;;;;;21.50;64.80;;;;;;6306591;28;19920;-60
2022/12/22 06:47:39;;;;;;;;;;;21.00;64.70;;;;;;6322816;28;19943;-59
2022/12/22 06:50:41;;;;;;;;;;;21.90;65.10;;;;;;6322579;28;20271;-59
2022/12/22 06:53:42;;;;;;;;;;;21.50;64.80;;;;;;6322919;28;20314;-59
2022/12/22 06:56:43;;;;;;;;;;;20.90;64.60;;;;;;6323212;28;19970;-59
2022/12/22 06:59:45;;;;;;;;;;;21.00;64.70;;;;;;6325766;28;19931;-59
2022/12/22 07:02:46;;;;;;;;;;;21.70;65.10;;;;;;6327821;28;19920;-58
2022/12/22 07:05:48;;;;;;;;;;;20.90;64.30;;;;;;6326931;28;19927;-59
2022/12/22 07:08:49;;;;;;;;;;;21.80;65.00;;;;;;6326498;28;19919;-59
2022/12/22 07:11:51;;;;;;;;;;;21.60;64.80;;;;;;6326634;28;20375;-59
2022/12/22 07:14:52;;;;;;;;;;;21.50;65.00;;;;;;6327226;28;19920;-59
2022/12/22 07:17:53;;;;;;;;;;;21.80;65.10;;;;;;6326592;28;20375;-58
2022/12/22 07:20:55;;;;;;;;;;;21.00;64.60;;;;;;6327016;28;20430;-59
2022/12/22 07:23:56;;;;;;;;;;;21.40;64.80;;;;;;6326311;28;19919;-59
2022/12/22 07:26:58;;;;;;;;;;;21.80;65.10;;;;;;6326308;28;19927;-59
2022/12/22 07:29:59;;;;;;;;;;;21.30;64.60;;;;;;6326573;28;20360;-59
2022/12/22 07:33:01;;;;;;;;;;;21.60;64.70;;;;;;6326149;28;19946;-58
2022/12/22 07:36:04;;;;;;;;;;;21.30;64.00;;;;;;6326503;28;20280;-60
2022/12/22 07:39:06;;;;;;;;;;;21.80;64.80;;;;;;6307741;28;19927;-59
2022/12/22 07:45:26;;;;;;;;;;;21.90;64.70;;;;;;6309432;28;19924;-59
2022/12/22 07:51:44;;;;;;;;;;;21.80;64.30;;;;;;6325744;28;20043;-59
2022/12/22 07:54:45;;;;;;;;;;;21.40;64.40;;;;;;6326134;28;19924;-59
2022/12/22 07:57:47;;;;;;;;;;;21.60;64.70;;;;;;6324694;28;19943;-58
2022/12/22 08:00:48;;;;;;;;;;;21.10;61.90;;;;;;6324584;28;19924;-58
2022/12/22 08:03:50;;;;;;;;;;;21.80;64.60;;;;;;6324806;28;19924;-59
2022/12/22 08:06:51;;;;;;;;;;;21.00;63.80;;;;;;6324704;28;19950;-59
2022/12/22 08:09:53;;;;;;;;;;;22.00;64.40;;;;;;6323261;28;19920;-57
2022/12/22 08:12:54;;;;;;;;;;;21.40;64.00;;;;;;6324537;28;20275;-58
2022/12/22 08:16:00;;;;;;;;;;;22.00;64.50;;;;;;6324384;28;19924;-59
2022/12/22 08:19:02;;;;;;;;;;;21.40;64.00;;;;;;6330614;28;19920;-64
2022/12/22 08:22:04;;;;;;;;;;;21.90;64.90;;;;;;6337339;28;19927;-63
2022/12/22 08:25:05;;;;;;;;;;;21.60;64.40;;;;;;6335796;28;20348;-62
2022/12/22 08:28:07;;;;;;;;;;;22.10;64.10;;;;;;6326835;28;20384;-63
2022/12/22 08:31:09;;;;;;;;;;;21.50;63.60;;;;;;6333136;28;19920;-59
2022/12/22 08:34:12;;;;;;;;;;;21.50;63.10;;;;;;6328588;28;19920;-63
2022/12/22 08:37:15;;;;;;;;;;;21.80;63.80;;;;;;6314038;28;19927;-60
2022/12/22 08:40:18;;;;;;;;;;;21.90;64.00;;;;;;6311965;28;19920;-60
2022/12/22 08:43:20;;;;;;;;;;;21.70;63.70;;;;;;6308037;28;19920;-59
2022/12/22 08:46:22;;;;;;;;;;;22.20;64.10;;;;;;6324383;28;19943;-58
2022/12/22 08:49:23;;;;;;;;;;;21.80;63.60;;;;;;6324476;28;20015;-59
2022/12/22 08:52:26;;;;;;;;;;;22.40;63.90;;;;;;6324109;28;20506;-59
2022/12/22 08:55:28;;;;;;;;;;;21.70;63.50;;;;;;6323705;28;20375;-58
2022/12/22 08:58:29;;;;;;;;;;;22.30;63.80;;;;;;6323778;28;19942;-60
2022/12/22 09:01:31;;;;;;;;;;;21.40;63.00;;;;;;6323432;28;19920;-59
2022/12/22 09:04:33;;;;;;;;;;;22.40;63.80;;;;;;6324178;28;19926;-58
2022/12/22 09:07:35;;;;;;;;;;;22.00;63.60;;;;;;6322998;28;19920;-58
2022/12/22 09:10:36;;;;;;;;;;;22.40;63.90;;;;;;6323246;28;19920;-58
2022/12/22 09:13:38;;;;;;;;;;;22.30;64.50;;;;;;6323933;28;19920;-58
2022/12/22 09:16:39;;;;;;;;;;;22.00;63.30;;;;;;6322923;28;19955;-58
2022/12/22 09:19:41;;;;;;;;;;;22.00;63.30;;;;;;6308192;28;19962;-59
2022/12/22 09:22:43;;;;;;;;;;;22.10;63.50;;;;;;6321869;28;20038;-58
2022/12/22 09:25:44;;;;;;;;;;;21.60;63.20;;;;;;6322763;28;19924;-58
2022/12/22 09:28:46;;;;;;;;;;;22.20;63.70;;;;;;6323474;28;19924;-58
2022/12/22 09:31:51;;;;;;;;;;;21.50;63.10;;;;;;6308726;28;20291;-58
2022/12/22 09:34:53;;;;;;;;;;;21.80;62.60;;;;;;6323165;28;19920;-59
2022/12/22 09:37:55;;;;;;;;;;;22.00;63.20;;;;;;6323066;28;19920;-58
2022/12/22 09:40:56;;;;;;;;;;;22.60;63.60;;;;;;6322840;28;19926;-58
2022/12/22 09:44:01;;;;;;;;;;;22.10;62.70;;;;;;6322427;28;19959;-59
2022/12/22 09:47:09;;;;;;;;;;;22.70;63.60;;;;;;6322904;28;19927;-59
2022/12/22 09:50:14;;;;;;;;;;;21.60;62.90;;;;;;6322550;28;19924;-58
2022/12/22 09:56:26;;;;;;;;;;;22.00;62.70;;;;;;6248288;28;20427;-58
2022/12/22 09:59:27;;;;;;;;;;;22.20;63.40;;;;;;6248065;28;19928;-58
2022/12/22 10:02:32;;;;;;;;;;;22.50;63.40;;;;;;6247936;28;19921;-58
2022/12/22 10:05:37;;;;;;;;;;;22.10;63.00;;;;;;6248602;28;19983;-58
2022/12/22 10:08:39;;;;;;;;;;;22.70;63.40;;;;;;6249845;28;19925;-58
2022/12/22 10:11:49;;;;;;;;;;;22.10;62.90;;;;;;6248989;28;19929;-58
2022/12/22 10:14:51;;;;;;;;;;;22.30;62.50;;;;;;6248239;28;20316;-58
2022/12/22 10:18:07;;;;;;;;;;;22.00;63.00;;;;;;6247911;28;20301;-58
2022/12/22 10:21:09;;;;;;;;;;;22.60;63.20;;;;;;6247715;28;19921;-58
2022/12/22 10:24:16;;;;;;;;;;;21.70;62.80;;;;;;6247522;28;19921;-58
2022/12/22 10:27:18;;;;;;;;;;;22.80;63.30;;;;;;6247861;28;19921;-59
2022/12/22 10:30:26;;;;;;;;;;;21.70;62.70;;;;;;6247332;28;19936;-58
2022/12/22 10:33:32;;;;;;;;;;;22.00;62.30;;;;;;6247129;28;19928;-58
2022/12/22 10:36:34;;;;;;;;;;;22.30;63.10;;;;;;6247453;28;20319;-58
2022/12/22 10:39:35;;;;;;;;;;;22.20;62.60;;;;;;6247174;28;19921;-58
2022/12/22 10:42:37;;;;;;;;;;;22.30;63.10;;;;;;6262812;28;20392;-58
2022/12/22 10:45:46;;;;;;;;;;;22.70;63.30;;;;;;6247232;28;19921;-58
2022/12/22 10:48:47;;;;;;;;;;;22.10;62.90;;;;;;6247204;28;19921;-58
2022/12/22 10:51:50;;;;;;;;;;;22.70;63.20;;;;;;6247027;28;20356;-58
2022/12/22 10:54:52;;;;;;;;;;;22.00;62.80;;;;;;6247501;28;20377;-58
2022/12/22 10:58:05;;;;;;;;;;;22.60;63.00;;;;;;6245663;28;19925;-59
2022/12/22 11:01:09;;;;;;;;;;;22.50;63.00;;;;;;6245698;28;19921;-47
2022/12/22 11:04:15;;;;;;;;;;;22.40;63.00;;;;;;6245187;28;19921;-47
2022/12/22 11:07:16;;;;;;;;;;;22.10;62.70;;;;;;6246985;28;19921;-49
2022/12/22 11:10:24;;;;;;;;;;;22.40;63.00;;;;;;6245927;28;19928;-52
2022/12/22 11:13:37;;;;;;;;;;;22.40;62.90;;;;;;6246601;28;19933;-51
2022/12/22 11:16:42;;;;;;;;;;;22.40;63.00;;;;;;6246770;28;20012;-46
2022/12/22 11:19:53;;;;;;;;;;;22.00;62.70;;;;;;6246550;28;19925;-50
2022/12/22 11:22:58;;;;;;;;;;;22.80;63.20;;;;;;6246571;28;19971;-50
2022/12/22 11:26:05;;;;;;;;;;;22.30;62.80;;;;;;6246605;28;19928;-51
2022/12/22 11:29:15;;;;;;;;;;;22.50;62.90;;;;;;6246465;28;19921;-48
2022/12/22 11:32:23;;;;;;;;;;;22.20;62.70;;;;;;6246312;28;19921;-51
2022/12/22 11:35:35;;;;;;;;;;;22.20;62.30;;;;;;6246575;28;19975;-51
2022/12/22 11:38:44;;;;;;;;;;;22.40;62.90;;;;;;6247064;28;19921;-49
2022/12/22 11:41:51;;;;;;;;;;;22.90;63.10;;;;;;6244984;28;19921;-49
2022/12/22 11:45:02;;;;;;;;;;;22.40;62.90;;;;;;6246692;28;20328;-50
2022/12/22 11:48:07;;;;;;;;;;;22.30;62.80;;;;;;6250363;28;19928;-49
2022/12/22 11:51:16;;;;;;;;;;;22.10;62.70;;;;;;6250328;28;19921;-48
2022/12/22 11:54:34;;;;;;;;;;;22.40;63.00;;;;;;6250938;28;20376;-48
2022/12/22 11:57:38;;;;;;;;;;;22.30;63.10;;;;;;6250459;28;19928;-50
2022/12/22 12:00:42;;;;;;;;;;;22.40;63.00;;;;;;6250424;28;20289;-49
2022/12/22 12:04:15;;;;;;;;;;;22.30;63.00;;;;;;6235267;28;20006;-49
2022/12/22 12:07:21;;;;;;;;;;;22.90;63.20;;;;;;6249876;28;19927;-45
2022/12/22 12:10:28;;;;;;;;;;;22.40;63.00;;;;;;6250557;28;20320;-45
2022/12/22 12:13:33;;;;;;;;;;;22.70;63.20;;;;;;6249971;28;19992;-50
2022/12/22 12:16:41;;;;;;;;;;;22.20;62.90;;;;;;6250162;28;19944;-49
2022/12/22 12:19:55;;;;;;;;;;;22.50;63.30;;;;;;6249640;28;19932;-48
2022/12/22 12:23:03;;;;;;;;;;;22.30;63.00;;;;;;6249694;28;19921;-47
2022/12/22 12:26:08;;;;;;;;;;;22.80;63.30;;;;;;6249535;28;19960;-47
2022/12/22 12:29:15;;;;;;;;;;;22.00;62.90;;;;;;6249985;28;20285;-51
2022/12/22 12:32:20;;;;;;;;;;;22.40;63.10;;;;;;6249807;28;20015;-50
2022/12/22 12:35:37;;;;;;;;;;;22.10;62.30;;;;;;6248053;28;20339;-52
2022/12/22 12:38:43;;;;;;;;;;;22.90;63.40;;;;;;6249540;28;20269;-49
2022/12/22 12:42:12;;;;;;;;;;;22.00;62.80;;;;;;6235025;28;19920;-47
2022/12/22 12:45:25;;;;;;;;;;;22.30;62.80;;;;;;6250201;28;20292;-51
2022/12/22 12:48:42;;;;;;;;;;;22.40;63.20;;;;;;6249105;28;19921;-51
2022/12/22 12:51:46;;;;;;;;;;;23.00;63.50;;;;;;6248791;28;20374;-51
2022/12/22 12:54:47;;;;;;;;;;;22.30;63.00;;;;;;6249019;28;19921;-49
2022/12/22 12:57:49;;;;;;;;;;;22.50;63.30;;;;;;6249205;28;20324;-48
2022/12/22 13:00:50;;;;;;;;;;;22.20;63.00;;;;;;6249048;28;20284;-50
2022/12/22 13:03:59;;;;;;;;;;;22.50;63.30;;;;;;6248739;28;19921;-49
2022/12/22 13:07:06;;;;;;;;;;;22.40;63.20;;;;;;6249117;28;19967;-51
2022/12/22 13:10:17;;;;;;;;;;;22.40;63.20;;;;;;6249337;28;20416;-50
2022/12/22 13:13:33;;;;;;;;;;;22.50;62.80;;;;;;6248500;28;19971;-48
2022/12/22 13:16:36;;;;;;;;;;;22.50;62.90;;;;;;6248697;28;19996;-49
2022/12/22 13:19:38;;;;;;;;;;;22.60;62.90;;;;;;6249112;28;20011;-52
2022/12/22 13:22:41;;;;;;;;;;;22.50;61.60;;;;;;6248947;28;19921;-48
2022/12/22 13:25:46;;;;;;;;;;;22.70;62.80;;;;;;6248906;28;19925;-51
2022/12/22 13:28:50;;;;;;;;;;;22.40;62.70;;;;;;6248707;28;19921;-50
2022/12/22 13:31:53;;;;;;;;;;;23.10;63.10;;;;;;6248453;28;19932;-48
2022/12/22 13:34:58;;;;;;;;;;;22.40;62.20;;;;;;6247522;28;20365;-50
2022/12/22 13:38:29;;;;;;;;;;;22.60;62.10;;;;;;6247500;28;20274;-47
2022/12/22 13:41:31;;;;;;;;;;;22.20;62.60;;;;;;6247012;28;19921;-51
2022/12/22 13:44:33;;;;;;;;;;;22.60;62.70;;;;;;6247211;28;20345;-49
2022/12/22 13:47:34;;;;;;;;;;;22.60;62.80;;;;;;6248999;28;19921;-52
2022/12/22 13:50:38;;;;;;;;;;;22.70;63.00;;;;;;6248966;28;20293;-48
2022/12/22 13:53:41;;;;;;;;;;;22.60;62.70;;;;;;6248175;28;19928;-51
2022/12/22 13:57:03;;;;;;;;;;;23.20;63.20;;;;;;6234023;28;20343;-47
2022/12/22 14:00:16;;;;;;;;;;;22.80;63.00;;;;;;6247580;28;20411;-52
2022/12/22 14:03:18;;;;;;;;;;;22.70;59.50;;;;;;6246235;28;20325;-49
2022/12/22 14:06:39;;;;;;;;;;;22.60;62.50;;;;;;6246478;28;19965;-49
2022/12/22 14:09:42;;;;;;;;;;;23.20;62.90;;;;;;6247699;28;19928;-49
2022/12/22 14:12:45;;;;;;;;;;;22.50;62.40;;;;;;6248023;28;19921;-51
2022/12/22 14:15:47;;;;;;;;;;;22.70;62.60;;;;;;6247879;28;20385;-51
2022/12/22 14:18:49;;;;;;;;;;;22.20;62.30;;;;;;6247925;28;19925;-50
2022/12/22 14:21:54;;;;;;;;;;;22.90;63.10;;;;;;6248147;28;19921;-48
2022/12/22 14:24:58;;;;;;;;;;;22.70;62.60;;;;;;6247674;28;19928;-52
2022/12/22 14:27:59;;;;;;;;;;;22.90;62.70;;;;;;6247653;28;19921;-50
2022/12/22 14:31:02;;;;;;;;;;;22.70;62.30;;;;;;6247776;28;19921;-48
2022/12/22 14:34:04;;;;;;;;;;;22.60;62.00;;;;;;6247908;28;19925;-52
2022/12/22 14:37:08;;;;;;;;;;;22.60;62.40;;;;;;6248169;28;19928;-48
2022/12/22 14:40:26;;;;;;;;;;;22.80;61.30;;;;;;6247532;28;19921;-50
2022/12/22 14:43:29;;;;;;;;;;;22.40;62.30;;;;;;6246512;28;19921;-47
2022/12/22 14:46:31;;;;;;;;;;;22.90;62.40;;;;;;6246270;28;19920;-50
2022/12/22 14:49:43;;;;;;;;;;;22.30;61.90;;;;;;6247042;28;19921;-50
2022/12/22 14:52:48;;;;;;;;;;;22.90;62.60;;;;;;6247607;28;19921;-51
2022/12/22 14:55:50;;;;;;;;;;;22.30;62.50;;;;;;6247344;28;19921;-46
2022/12/22 14:59:06;;;;;;;;;;;23.20;63.00;;;;;;6247080;28;19921;-50
2022/12/22 15:02:17;;;;;;;;;;;22.60;62.50;;;;;;6247315;28;19964;-47
2022/12/22 15:05:24;;;;;;;;;;;23.20;63.00;;;;;;6246865;28;19927;-49
2022/12/22 15:08:35;;;;;;;;;;;22.70;62.60;;;;;;6245435;28;20285;-50
2022/12/22 15:11:42;;;;;;;;;;;23.30;63.00;;;;;;6247013;28;19921;-52
2022/12/22 15:14:46;;;;;;;;;;;22.90;62.90;;;;;;6246965;28;19925;-48
2022/12/22 15:17:49;;;;;;;;;;;22.90;62.60;;;;;;6245489;28;19921;-47
2022/12/22 15:20:50;;;;;;;;;;;22.80;62.70;;;;;;6247339;28;19944;-50
2022/12/22 15:23:51;;;;;;;;;;;23.00;62.80;;;;;;6251547;28;19921;-48
2022/12/22 15:26:53;;;;;;;;;;;22.90;62.60;;;;;;6251598;28;19928;-50
2022/12/22 15:29:54;;;;;;;;;;;23.20;63.00;;;;;;6251246;28;19949;-48
2022/12/22 15:32:56;;;;;;;;;;;22.80;62.30;;;;;;6250987;28;20328;-47
2022/12/22 15:35:57;;;;;;;;;;;22.60;62.20;;;;;;6250790;28;20365;-50
2022/12/22 15:38:59;;;;;;;;;;;22.60;62.80;;;;;;6250597;28;19971;-49
2022/12/22 15:42:01;;;;;;;;;;;22.70;63.10;;;;;;6251144;28;19927;-46
2022/12/22 15:45:02;;;;;;;;;;;22.50;62.90;;;;;;6250689;28;19921;-50
2022/12/22 15:48:05;;;;;;;;;;;22.90;63.00;;;;;;6251455;28;19925;-47
2022/12/22 15:51:08;;;;;;;;;;;22.40;62.70;;;;;;6249762;28;19921;-54
2022/12/22 15:54:12;;;;;;;;;;;23.10;62.90;;;;;;6249146;28;20289;-48
2022/12/22 15:57:13;;;;;;;;;;;22.50;62.80;;;;;;6250826;28;20392;-47
2022/12/22 16:00:18;;;;;;;;;;;23.30;63.40;;;;;;6250726;28;20389;-49
2022/12/22 16:03:19;;;;;;;;;;;22.40;62.70;;;;;;6250573;28;19928;-53
2022/12/22 16:06:21;;;;;;;;;;;23.30;63.60;;;;;;6250215;28;19928;-52
2022/12/22 16:09:23;;;;;;;;;;;22.60;62.50;;;;;;6250507;28;19991;-49
2022/12/22 16:12:25;;;;;;;;;;;23.30;63.30;;;;;;6249173;28;20347;-52
2022/12/22 16:15:27;;;;;;;;;;;22.40;62.70;;;;;;6249794;28;19921;-48
2022/12/22 16:18:29;;;;;;;;;;;23.10;62.70;;;;;;6250756;28;20311;-51
2022/12/22 16:21:31;;;;;;;;;;;22.50;62.50;;;;;;6250779;28;19945;-47
2022/12/22 16:24:33;;;;;;;;;;;23.00;62.90;;;;;;6248744;28;19921;-48
2022/12/22 16:27:35;;;;;;;;;;;22.70;62.70;;;;;;6250198;28;19921;-48
2022/12/22 16:30:38;;;;;;;;;;;23.40;63.20;;;;;;6249203;28;19921;-49
2022/12/22 16:33:39;;;;;;;;;;;22.80;62.20;;;;;;6249272;28;19921;-47
2022/12/22 16:36:40;;;;;;;;;;;22.90;63.00;;;;;;6249973;28;19925;-48
2022/12/22 16:39:42;;;;;;;;;;;22.90;62.70;;;;;;6249818;28;19925;-51
2022/12/22 16:42:48;;;;;;;;;;;23.00;63.00;;;;;;6249869;28;19928;-53
2022/12/22 16:46:05;;;;;;;;;;;23.00;62.90;;;;;;6250046;28;20377;-50
2022/12/22 16:49:07;;;;;;;;;;;23.00;62.80;;;;;;6249866;28;19921;-46
2022/12/22 16:52:14;;;;;;;;;;;22.80;62.80;;;;;;6250390;28;19921;-46
2022/12/22 16:55:17;;;;;;;;;;;23.40;63.20;;;;;;6250019;28;19921;-46
2022/12/22 16:58:20;;;;;;;;;;;23.10;63.00;;;;;;6248693;28;20284;-45
2022/12/22 17:01:28;;;;;;;;;;;23.20;62.90;;;;;;6249225;28;19928;-48
2022/12/22 17:04:31;;;;;;;;;;;22.80;63.10;;;;;;6249453;28;20440;-46
2022/12/22 17:07:32;;;;;;;;;;;23.20;63.40;;;;;;6250049;28;19921;-50
2022/12/22 17:10:34;;;;;;;;;;;22.40;62.90;;;;;;6249715;28;20339;-49
2022/12/22 17:13:36;;;;;;;;;;;23.00;63.40;;;;;;6248103;28;20388;-46
2022/12/22 17:16:37;;;;;;;;;;;22.60;63.30;;;;;;6249238;28;19967;-45
2022/12/22 17:19:39;;;;;;;;;;;23.40;63.90;;;;;;6249438;28;19927;-46
2022/12/22 17:22:42;;;;;;;;;;;22.50;63.20;;;;;;6249099;28;19959;-49
2022/12/22 17:25:43;;;;;;;;;;;23.00;63.60;;;;;;6247815;28;20281;-47
2022/12/22 17:28:46;;;;;;;;;;;22.60;63.50;;;;;;6249225;28;19921;-47
2022/12/22 17:31:48;;;;;;;;;;;22.90;63.10;;;;;;6248895;28;20328;-46
2022/12/22 17:34:49;;;;;;;;;;;22.60;63.00;;;;;;6248736;28;19920;-46
2022/12/22 17:37:52;;;;;;;;;;;23.20;64.10;;;;;;6249793;28;19928;-49
2022/12/22 17:40:55;;;;;;;;;;;22.40;63.50;;;;;;6248833;28;19921;-47
2022/12/22 17:43:57;;;;;;;;;;;23.00;64.10;;;;;;6248092;28;20436;-48
2022/12/22 17:46:58;;;;;;;;;;;22.30;63.60;;;;;;6248981;28;19921;-48
2022/12/22 17:50:00;;;;;;;;;;;23.20;64.20;;;;;;6249123;28;20400;-46
2022/12/22 17:53:02;;;;;;;;;;;22.50;63.70;;;;;;6248784;28;19952;-50
2022/12/22 17:56:03;;;;;;;;;;;23.10;64.20;;;;;;6248324;28;19921;-47
2022/12/22 17:59:11;;;;;;;;;;;22.30;63.80;;;;;;6248607;28;19928;-48
2022/12/22 18:02:15;;;;;;;;;;;23.10;64.30;;;;;;6248410;28;19921;-49
2022/12/22 18:05:17;;;;;;;;;;;22.30;63.90;;;;;;6248111;28;19921;-50
2022/12/22 18:08:19;;;;;;;;;;;22.80;64.30;;;;;;6248381;28;20016;-51
2022/12/22 18:11:21;;;;;;;;;;;22.60;64.20;;;;;;6248104;28;19954;-50
2022/12/22 18:14:23;;;;;;;;;;;23.00;64.70;;;;;;6248031;28;20392;-47
2022/12/22 18:17:25;;;;;;;;;;;22.50;64.30;;;;;;6248290;28;19925;-49
2022/12/22 18:20:34;;;;;;;;;;;22.90;64.50;;;;;;6247022;28;19920;-48
2022/12/22 18:23:36;;;;;;;;;;;22.10;64.10;;;;;;6248226;28;20369;-49
2022/12/22 18:26:37;;;;;;;;;;;22.90;64.50;;;;;;6246741;28;19967;-48
2022/12/22 18:29:39;;;;;;;;;;;22.10;64.30;;;;;;6248035;28;19921;-45
2022/12/22 18:32:40;;;;;;;;;;;23.00;64.80;;;;;;6247517;28;19921;-51
2022/12/22 18:35:42;;;;;;;;;;;22.20;63.80;;;;;;6248034;28;20361;-50
2022/12/22 18:38:44;;;;;;;;;;;22.90;64.70;;;;;;6248779;28;19979;-51
2022/12/22 18:41:45;;;;;;;;;;;22.20;64.40;;;;;;6246495;28;19921;-47
2022/12/22 18:44:47;;;;;;;;;;;22.90;65.00;;;;;;6247840;28;20370;-50
2022/12/22 18:47:49;;;;;;;;;;;22.10;64.50;;;;;;6247804;28;19928;-48
2022/12/22 18:50:50;;;;;;;;;;;22.90;65.00;;;;;;6247485;28;19925;-47
2022/12/22 18:53:52;;;;;;;;;;;22.00;64.20;;;;;;6247912;28;19921;-49
2022/12/22 18:56:56;;;;;;;;;;;22.60;64.60;;;;;;6250992;28;20376;-50
2022/12/22 18:59:58;;;;;;;;;;;22.40;64.80;;;;;;6251822;28;20309;-49
2022/12/22 19:03:00;;;;;;;;;;;22.90;65.00;;;;;;6252082;28;19975;-50
2022/12/22 19:06:01;;;;;;;;;;;22.30;64.70;;;;;;6251712;28;19921;-46
2022/12/22 19:09:03;;;;;;;;;;;22.40;64.50;;;;;;6251660;28;19921;-50
2022/12/22 19:12:04;;;;;;;;;;;22.40;64.60;;;;;;6251145;28;20313;-48
2022/12/22 19:15:15;;;;;;;;;;;22.30;64.80;;;;;;6251492;28;20277;-48
2022/12/22 19:18:17;;;;;;;;;;;22.10;64.50;;;;;;6251226;28;19921;-47
2022/12/22 19:21:27;;;;;;;;;;;22.90;65.10;;;;;;6250433;28;19921;-46
2022/12/22 19:24:28;;;;;;;;;;;22.50;64.70;;;;;;6251314;28;19921;-47
2022/12/22 19:27:31;;;;;;;;;;;22.30;65.10;;;;;;6251183;28;20281;-50
2022/12/22 19:30:33;;;;;;;;;;;22.20;65.00;;;;;;6251460;28;20435;-47
2022/12/22 19:33:36;;;;;;;;;;;22.00;64.20;;;;;;6251124;28;19968;-48
2022/12/22 19:36:37;;;;;;;;;;;21.80;64.70;;;;;;6250920;28;19928;-48
2022/12/22 19:39:38;;;;;;;;;;;22.30;65.20;;;;;;6250860;28;19921;-51
2022/12/22 19:42:40;;;;;;;;;;;22.30;64.60;;;;;;6251046;28;19921;-48
2022/12/22 19:45:42;;;;;;;;;;;22.80;65.10;;;;;;6249556;28;19921;-46
2022/12/22 19:48:46;;;;;;;;;;;22.60;65.20;;;;;;6250708;28;19928;-52
2022/12/22 19:51:47;;;;;;;;;;;21.80;64.80;;;;;;6250994;28;19924;-48
2022/12/22 19:54:49;;;;;;;;;;;21.80;64.20;;;;;;6250733;28;19921;-47
2022/12/22 19:57:50;;;;;;;;;;;22.30;65.00;;;;;;6250490;28;19943;-49
2022/12/22 20:00:53;;;;;;;;;;;22.20;65.00;;;;;;6250634;28;19949;-49
2022/12/22 20:03:55;;;;;;;;;;;21.70;64.80;;;;;;6250468;28;19941;-50
2022/12/22 20:06:56;;;;;;;;;;;21.90;64.40;;;;;;6249287;28;20372;-47
2022/12/22 20:09:57;;;;;;;;;;;22.30;64.90;;;;;;6250735;28;20375;-50
2022/12/22 20:13:00;;;;;;;;;;;21.80;65.00;;;;;;6250498;28;19921;-50
2022/12/22 20:16:03;;;;;;;;;;;21.60;64.80;;;;;;6250114;28;19920;-51
2022/12/22 20:19:04;;;;;;;;;;;21.80;65.00;;;;;;6250465;28;19928;-47
2022/12/22 20:22:06;;;;;;;;;;;22.10;65.10;;;;;;6250567;28;20360;-50
2022/12/22 20:25:12;;;;;;;;;;;22.20;65.30;;;;;;6249656;28;20400;-51
2022/12/22 20:28:15;;;;;;;;;;;21.60;64.60;;;;;;6250217;28;19921;-51
2022/12/22 20:31:18;;;;;;;;;;;22.00;64.90;;;;;;6249377;28;19928;-50
2022/12/22 20:34:20;;;;;;;;;;;21.90;64.40;;;;;;6248391;28;20016;-49
2022/12/22 20:37:21;;;;;;;;;;;22.10;65.20;;;;;;6249975;28;20400;-48
2022/12/22 20:40:23;;;;;;;;;;;21.70;65.00;;;;;;6249484;28;19928;-48
2022/12/22 20:43:26;;;;;;;;;;;22.20;65.10;;;;;;6249493;28;19925;-47
2022/12/22 20:46:28;;;;;;;;;;;22.60;65.40;;;;;;6249643;28;19921;-48
2022/12/22 20:49:31;;;;;;;;;;;21.90;65.20;;;;;;6250127;28;19928;-48
2022/12/22 20:52:33;;;;;;;;;;;21.70;65.00;;;;;;6249373;28;19921;-46
2022/12/22 20:55:34;;;;;;;;;;;22.00;65.30;;;;;;6249958;28;19921;-48
2022/12/22 20:58:35;;;;;;;;;;;22.50;65.70;;;;;;6250003;28;19928;-49
2022/12/22 21:01:37;;;;;;;;;;;21.80;65.20;;;;;;6249607;28;19921;-50
2022/12/22 21:04:39;;;;;;;;;;;21.50;64.90;;;;;;6249533;28;20270;-46
2022/12/22 21:07:40;;;;;;;;;;;22.00;64.90;;;;;;6249051;28;19921;-46
2022/12/22 21:10:43;;;;;;;;;;;22.10;65.10;;;;;;6249029;28;19921;-50
2022/12/22 21:13:44;;;;;;;;;;;21.90;65.10;;;;;;6247752;28;20003;-47
2022/12/22 21:16:47;;;;;;;;;;;21.80;65.20;;;;;;6249504;28;19929;-49
2022/12/22 21:19:49;;;;;;;;;;;21.90;65.20;;;;;;6248543;28;19943;-48
2022/12/22 21:22:50;;;;;;;;;;;22.60;65.60;;;;;;6248993;28;19921;-48
2022/12/22 21:25:52;;;;;;;;;;;22.20;65.60;;;;;;6248962;28;19927;-48
2022/12/22 21:28:53;;;;;;;;;;;21.60;64.90;;;;;;6249085;28;20281;-49
2022/12/22 21:31:55;;;;;;;;;;;22.30;65.40;;;;;;6249064;28;19960;-51
2022/12/22 21:34:58;;;;;;;;;;;21.90;64.60;;;;;;6248941;28;19921;-48